createdAt,value
2023-02-19T00:01:46.920Z,13.18
2023-02-19T00:04:15.855Z,17.13
2023-02-19T00:06:44.234Z,13.05
2023-02-19T00:09:13.233Z,12.57
2023-02-19T00:11:40.571Z,14.50
2023-02-19T00:14:08.272Z,17.35
2023-02-19T00:16:38.101Z,14.73
2023-02-19T00:19:07.987Z,13.80
2023-02-19T00:21:35.522Z,9.90
2023-02-19T00:24:05.307Z,12.45
2023-02-19T00:26:32.850Z,8.60
2023-02-19T00:29:01.500Z,11.45
2023-02-19T00:31:33.206Z,9.10
2023-02-19T00:34:05.856Z,14.70
2023-02-19T00:36:36.288Z,10.35
2023-02-19T00:39:04.858Z,10.35
2023-02-19T00:41:32.257Z,11.85
2023-02-19T00:44:01.944Z,10.57
2023-02-19T00:46:38.029Z,12.88
2023-02-19T00:49:06.496Z,15.10
2023-02-19T00:51:36.753Z,8.82
2023-02-19T00:54:05.907Z,13.30
2023-02-19T00:56:33.937Z,9.52
2023-02-19T00:59:01.030Z,11.35
2023-02-19T01:01:28.197Z,12.98
2023-02-19T01:03:55.572Z,11.10
2023-02-19T01:06:22.909Z,13.75
2023-02-19T01:08:50.416Z,9.60
2023-02-19T01:11:18.892Z,9.98
2023-02-19T01:13:45.961Z,11.25
2023-02-19T01:16:25.130Z,11.35
2023-02-19T01:18:52.674Z,14.88
2023-02-19T01:21:23.716Z,12.48
2023-02-19T01:23:52.079Z,12.60
2023-02-19T01:26:22.144Z,11.70
2023-02-19T01:28:49.341Z,11.30
2023-02-19T01:31:19.163Z,7.88
2023-02-19T01:33:51.954Z,8.73
2023-02-19T01:36:19.483Z,11.07
2023-02-19T01:38:46.966Z,9.35
2023-02-19T01:41:18.066Z,14.48
2023-02-19T01:44:13.312Z,9.00
2023-02-19T01:46:42.695Z,13.13
2023-02-19T01:49:16.519Z,11.82
2023-02-19T01:52:08.488Z,10.38
2023-02-19T01:54:38.626Z,13.38
2023-02-19T01:57:12.127Z,12.68
2023-02-19T01:59:44.439Z,13.98
2023-02-19T02:02:11.946Z,12.75
2023-02-19T02:04:39.278Z,15.15
2023-02-19T02:07:29.829Z,9.95
2023-02-19T02:10:16.139Z,12.27
2023-02-19T02:12:43.282Z,20.52
2023-02-19T02:15:10.693Z,19.48
2023-02-19T02:18:18.761Z,19.85
2023-02-19T02:21:04.621Z,19.02
2023-02-19T02:23:55.195Z,18.50
2023-02-19T02:26:55.451Z,27.17
2023-02-19T02:29:45.505Z,36.13
2023-02-19T02:32:19.111Z,26.88
2023-02-19T02:34:52.736Z,25.33
2023-02-19T02:37:20.236Z,31.50
2023-02-19T02:39:48.204Z,30.98
2023-02-19T02:42:30.303Z,34.45
2023-02-19T02:45:17.142Z,28.25
2023-02-19T02:47:51.299Z,24.95
2023-02-19T02:50:25.184Z,28.20
2023-02-19T02:55:44.643Z,28.85
2023-02-19T02:58:13.568Z,31.23
2023-02-19T03:01:04.882Z,36.78
2023-02-19T03:03:33.064Z,24.67
2023-02-19T03:06:06.884Z,35.90
2023-02-19T03:08:39.809Z,29.02
2023-02-19T03:11:28.780Z,27.27
2023-02-19T03:14:28.094Z,23.77
2023-02-19T03:17:19.240Z,26.67
2023-02-19T03:19:51.593Z,28.17
2023-02-19T03:22:23.834Z,20.98
2023-02-19T03:25:19.053Z,28.90
2023-02-19T03:27:48.418Z,26.60
2023-02-19T03:30:23.134Z,20.15
2023-02-19T03:33:02.320Z,22.83
2023-02-19T03:35:36.148Z,21.25
2023-02-19T03:38:18.856Z,22.17
2023-02-19T03:41:00.033Z,21.75
2023-02-19T03:43:41.746Z,21.48
2023-02-19T03:46:23.775Z,26.80
2023-02-19T03:48:59.616Z,21.65
2023-02-19T03:51:53.997Z,21.73
2023-02-19T03:54:30.457Z,19.00
2023-02-19T03:57:16.643Z,23.38
2023-02-19T04:00:03.799Z,21.90
2023-02-19T04:02:47.604Z,26.30
2023-02-19T04:05:19.711Z,21.73
2023-02-19T04:07:51.165Z,22.48
2023-02-19T04:10:19.633Z,22.17
2023-02-19T04:12:54.497Z,23.80
2023-02-19T04:15:27.413Z,19.80
2023-02-19T04:18:07.885Z,23.50
2023-02-19T04:20:42.663Z,20.33
2023-02-19T04:23:10.661Z,21.70
2023-02-19T04:25:41.682Z,23.08
2023-02-19T04:28:09.627Z,25.88
2023-02-19T04:30:36.790Z,27.52
2023-02-19T04:33:04.038Z,25.33
2023-02-19T04:35:31.228Z,20.00
2023-02-19T04:37:58.295Z,19.20
2023-02-19T04:40:25.372Z,27.65
2023-02-19T04:42:53.521Z,20.00
2023-02-19T04:45:20.627Z,23.08
2023-02-19T04:47:47.651Z,25.27
2023-02-19T04:50:14.918Z,21.95
2023-02-19T04:52:41.958Z,31.17
2023-02-19T04:55:09.484Z,34.08
2023-02-19T04:57:36.718Z,24.70
2023-02-19T05:00:05.029Z,26.02
2023-02-19T05:02:32.454Z,33.45
2023-02-19T05:04:59.514Z,29.85
2023-02-19T05:07:26.743Z,30.75
2023-02-19T05:09:55.108Z,31.35
2023-02-19T05:12:22.441Z,27.83
2023-02-19T05:14:49.645Z,32.03
2023-02-19T05:17:16.695Z,22.40
2023-02-19T05:19:44.102Z,32.25
2023-02-19T05:22:11.149Z,30.05
2023-02-19T05:24:38.129Z,23.70
2023-02-19T05:27:05.381Z,29.58
2023-02-19T05:29:32.844Z,33.78
2023-02-19T05:31:59.870Z,35.40
2023-02-19T05:34:27.027Z,32.10
2023-02-19T05:36:54.181Z,33.28
2023-02-19T05:39:21.185Z,31.95
2023-02-19T05:41:48.262Z,28.48
2023-02-19T05:44:15.334Z,28.08
2023-02-19T05:46:42.352Z,33.50
2023-02-19T05:49:09.441Z,32.17
2023-02-19T05:51:36.600Z,29.65
2023-02-19T05:54:03.937Z,31.48
2023-02-19T05:56:40.630Z,28.00
2023-02-19T05:59:19.334Z,27.40
2023-02-19T06:01:47.336Z,30.73
2023-02-19T06:04:14.870Z,33.17
2023-02-19T06:06:43.892Z,33.15
2023-02-19T06:09:11.315Z,28.80
2023-02-19T06:11:39.757Z,27.80
2023-02-19T06:14:06.844Z,32.80
2023-02-19T06:16:34.763Z,34.42
2023-02-19T06:19:05.069Z,28.25
2023-02-19T06:21:32.544Z,25.48
2023-02-19T06:23:59.587Z,29.83
2023-02-19T06:26:26.852Z,29.83
2023-02-19T06:28:54.763Z,31.52
2023-02-19T06:31:23.572Z,38.60
2023-02-19T06:33:55.309Z,34.25
2023-02-19T06:36:23.110Z,30.42
2023-02-19T06:38:50.278Z,27.42
2023-02-19T06:41:18.222Z,27.02
2023-02-19T06:43:46.818Z,24.60
2023-02-19T06:46:14.270Z,29.15
2023-02-19T06:48:44.435Z,26.73
2023-02-19T06:51:19.001Z,25.83
2023-02-19T06:53:46.820Z,32.45
2023-02-19T06:56:29.039Z,25.77
2023-02-19T06:59:02.202Z,31.75
2023-02-19T07:01:31.143Z,26.13
2023-02-19T07:03:58.577Z,26.63
2023-02-19T07:06:27.160Z,29.17
2023-02-19T07:08:56.393Z,26.05
2023-02-19T07:11:24.302Z,28.33
2023-02-19T07:14:02.229Z,31.73
2023-02-19T07:16:30.394Z,28.20
2023-02-19T07:18:58.661Z,24.73
2023-02-19T07:21:26.895Z,23.77
2023-02-19T07:23:54.204Z,27.27
2023-02-19T07:26:22.291Z,28.80
2023-02-19T07:28:51.415Z,25.02
2023-02-19T07:31:20.158Z,24.50
2023-02-19T07:33:47.823Z,22.75
2023-02-19T07:36:17.994Z,30.73
2023-02-19T07:38:45.826Z,23.92
2023-02-19T07:41:13.822Z,21.17
2023-02-19T07:43:41.082Z,22.48
2023-02-19T07:46:13.929Z,24.60
2023-02-19T07:48:42.863Z,26.30
2023-02-19T07:51:19.728Z,23.17
2023-02-19T07:53:47.794Z,27.02
2023-02-19T07:56:14.944Z,33.15
2023-02-19T07:58:42.656Z,22.45
2023-02-19T08:01:43.107Z,30.88
2023-02-19T08:04:12.439Z,20.98
2023-02-19T08:06:39.787Z,22.40
2023-02-19T08:09:07.090Z,28.52
2023-02-19T08:11:52.712Z,27.85
2023-02-19T08:14:19.924Z,23.42
2023-02-19T08:16:51.167Z,31.42
2023-02-19T08:19:18.996Z,24.48
2023-02-19T08:21:46.146Z,21.63
2023-02-19T08:24:13.384Z,18.33
2023-02-19T08:26:40.470Z,20.42
2023-02-19T08:29:07.592Z,21.98
2023-02-19T08:31:35.934Z,25.45
2023-02-19T08:34:03.475Z,28.60
2023-02-19T08:36:30.656Z,31.00
2023-02-19T08:38:57.804Z,23.02
2023-02-19T08:41:24.898Z,29.60
2023-02-19T08:43:52.116Z,25.52
2023-02-19T08:46:19.398Z,32.42
2023-02-19T08:48:46.559Z,25.52
2023-02-19T08:51:13.834Z,25.98
2023-02-19T08:53:41.843Z,23.05
2023-02-19T08:56:17.609Z,23.35
2023-02-19T08:58:45.636Z,28.20
2023-02-19T09:01:15.661Z,26.25
2023-02-19T09:03:43.120Z,23.08
2023-02-19T09:06:21.102Z,25.48
2023-02-19T09:08:48.277Z,29.92
2023-02-19T09:11:15.915Z,33.90
2023-02-19T09:13:44.150Z,32.35
2023-02-19T09:16:12.048Z,36.70
2023-02-19T09:18:39.176Z,38.33
2023-02-19T09:21:07.013Z,35.15
2023-02-19T09:23:36.092Z,33.38
2023-02-19T09:26:10.307Z,36.15
2023-02-19T09:28:41.893Z,77.10
2023-02-19T09:31:11.916Z,72.03
2023-02-19T09:33:42.713Z,57.40
2023-02-19T09:36:19.468Z,80.63
2023-02-19T09:38:46.886Z,72.57
2023-02-19T09:41:20.523Z,45.92
2023-02-19T09:43:47.682Z,39.47
2023-02-19T09:46:26.701Z,53.17
2023-02-19T09:49:05.353Z,57.78
2023-02-19T09:51:37.076Z,36.22
2023-02-19T09:54:10.172Z,26.80
2023-02-19T09:56:37.315Z,41.15
2023-02-19T09:59:05.876Z,25.92
2023-02-19T10:01:37.896Z,34.75
2023-02-19T10:04:05.163Z,33.85
2023-02-19T10:06:32.994Z,32.47
2023-02-19T10:09:26.265Z,25.67
2023-02-19T10:11:55.929Z,43.15
2023-02-19T10:14:26.200Z,40.92
2023-02-19T10:16:53.940Z,29.95
2023-02-19T10:19:21.038Z,36.92
2023-02-19T10:21:48.243Z,36.08
2023-02-19T10:24:24.523Z,29.85
2023-02-19T10:26:52.063Z,37.00
2023-02-19T10:29:20.363Z,35.83
2023-02-19T10:31:47.501Z,27.08
2023-02-19T10:34:22.473Z,27.42
2023-02-19T10:36:52.573Z,26.77
2023-02-19T10:39:22.464Z,25.77
2023-02-19T10:41:56.452Z,67.70
2023-02-19T10:44:33.954Z,33.47
2023-02-19T10:47:02.465Z,35.40
2023-02-19T10:49:34.345Z,42.35
2023-02-19T10:52:17.839Z,30.15
2023-02-19T10:54:46.936Z,29.42
2023-02-19T10:57:21.377Z,30.90
2023-02-19T11:00:13.814Z,29.08
2023-02-19T11:02:41.143Z,37.42
2023-02-19T11:05:17.023Z,41.13
2023-02-19T11:07:48.655Z,32.55
2023-02-19T11:10:33.877Z,32.50
2023-02-19T11:13:04.771Z,32.20
2023-02-19T11:15:37.575Z,35.97
2023-02-19T11:18:14.064Z,44.50
2023-02-19T11:21:04.951Z,42.42
2023-02-19T11:23:38.006Z,31.95
2023-02-19T11:26:19.335Z,36.70
2023-02-19T11:28:46.639Z,38.67
2023-02-19T11:31:19.887Z,28.15
2023-02-19T11:34:01.392Z,31.23
2023-02-19T11:36:34.616Z,28.08
2023-02-19T11:39:27.947Z,31.45
2023-02-19T11:42:22.585Z,25.98
2023-02-19T11:45:19.047Z,27.08
2023-02-19T11:48:01.017Z,29.13
2023-02-19T11:51:03.132Z,38.75
2023-02-19T11:53:37.454Z,40.85
2023-02-19T11:56:16.914Z,32.58
2023-02-19T11:58:52.025Z,41.88
2023-02-19T12:02:08.697Z,29.33
2023-02-19T12:04:54.266Z,33.10
2023-02-19T12:07:23.065Z,33.45
2023-02-19T12:09:55.858Z,27.98
2023-02-19T12:12:40.842Z,40.00
2023-02-19T12:15:29.580Z,28.38
2023-02-19T12:18:21.677Z,26.27
2023-02-19T12:20:57.428Z,33.10
2023-02-19T12:23:39.839Z,24.67
2023-02-19T12:26:25.385Z,18.38
2023-02-19T12:29:29.979Z,25.00
2023-02-19T12:32:03.033Z,32.45
2023-02-19T12:34:33.032Z,31.42
2023-02-19T12:37:11.701Z,31.70
2023-02-19T12:39:57.106Z,32.95
2023-02-19T12:42:45.673Z,35.83
2023-02-19T12:45:36.659Z,27.17
2023-02-19T12:48:27.281Z,32.13
2023-02-19T12:51:04.407Z,29.83
2023-02-19T12:53:40.244Z,31.88
2023-02-19T12:56:17.504Z,26.30
2023-02-19T12:58:49.733Z,26.30
2023-02-19T13:01:24.407Z,28.85
2023-02-19T13:04:19.468Z,28.00
2023-02-19T13:07:15.114Z,27.48
2023-02-19T13:09:57.057Z,26.95
2023-02-19T13:12:29.439Z,26.60
2023-02-19T13:15:04.832Z,25.00
2023-02-19T13:17:55.825Z,23.13
2023-02-19T13:20:34.698Z,25.88
2023-02-19T13:23:41.292Z,26.55
2023-02-19T13:26:39.259Z,25.27
2023-02-19T13:29:27.768Z,23.27
2023-02-19T13:32:04.067Z,26.88
2023-02-19T13:34:56.000Z,26.92
2023-02-19T13:37:24.503Z,21.50
2023-02-19T13:39:54.084Z,18.50
2023-02-19T13:42:25.907Z,23.83
2023-02-19T13:44:57.721Z,17.92
2023-02-19T13:47:47.272Z,23.17
2023-02-19T13:50:28.815Z,19.35
2023-02-19T13:52:57.745Z,21.15
2023-02-19T13:55:47.502Z,21.15
2023-02-19T13:58:55.384Z,15.35
2023-02-19T14:01:52.061Z,20.02
2023-02-19T14:04:51.993Z,16.05
2023-02-19T14:07:19.031Z,20.55
2023-02-19T14:09:47.221Z,20.05
2023-02-19T14:12:15.890Z,15.35
2023-02-19T14:14:51.779Z,20.75
2023-02-19T14:17:42.401Z,17.65
2023-02-19T14:20:09.405Z,14.02
2023-02-19T14:23:02.090Z,18.25
2023-02-19T14:25:29.164Z,16.98
2023-02-19T14:28:14.961Z,18.40
2023-02-19T14:31:09.225Z,19.98
2023-02-19T14:36:19.534Z,16.77
2023-02-19T14:38:49.190Z,16.02
2023-02-19T14:41:17.728Z,17.50
2023-02-19T14:43:49.395Z,13.77
2023-02-19T14:46:19.463Z,13.25
2023-02-19T14:48:49.650Z,18.10
2023-02-19T14:51:22.838Z,17.52
2023-02-19T14:53:52.143Z,20.75
2023-02-19T14:56:23.498Z,15.15
2023-02-19T14:59:13.117Z,11.20
2023-02-19T15:01:40.716Z,10.57
2023-02-19T15:04:26.210Z,11.55
2023-02-19T15:06:56.979Z,10.93
2023-02-19T15:09:52.198Z,16.02
2023-02-19T15:12:23.928Z,16.27
2023-02-19T15:14:55.220Z,18.70
2023-02-19T15:17:34.622Z,16.23
2023-02-19T15:20:18.289Z,19.35
2023-02-19T15:22:46.745Z,8.02
2023-02-19T15:25:22.809Z,12.18
2023-02-19T15:27:51.089Z,13.05
2023-02-19T15:30:28.647Z,12.63
2023-02-19T15:33:01.093Z,13.13
2023-02-19T15:35:29.325Z,11.85
2023-02-19T15:37:57.183Z,16.33
2023-02-19T15:40:31.036Z,13.80
2023-02-19T15:45:37.255Z,16.10
2023-02-19T15:48:18.599Z,12.93
2023-02-19T15:50:57.998Z,10.30
2023-02-19T15:53:29.849Z,12.15
2023-02-19T15:56:03.101Z,17.13
2023-02-19T15:58:33.311Z,11.50
2023-02-19T16:01:05.061Z,12.15
2023-02-19T16:03:33.051Z,11.45
2023-02-19T16:06:00.744Z,11.25
2023-02-19T16:08:35.150Z,8.85
2023-02-19T16:11:28.246Z,10.50
2023-02-19T16:14:23.433Z,14.57
2023-02-19T16:16:55.307Z,10.60
2023-02-19T16:19:32.726Z,13.20
2023-02-19T16:22:01.016Z,11.15
2023-02-19T16:24:45.442Z,8.40
2023-02-19T16:27:39.247Z,7.05
2023-02-19T16:30:29.984Z,10.93
2023-02-19T16:33:37.218Z,11.00
2023-02-19T16:36:32.954Z,8.45
2023-02-19T16:39:09.533Z,11.88
2023-02-19T16:41:45.619Z,7.30
2023-02-19T16:44:39.213Z,5.82
2023-02-19T16:47:24.113Z,5.30
2023-02-19T16:49:51.655Z,7.93
2023-02-19T16:52:18.881Z,8.25
2023-02-19T16:54:48.608Z,4.88
2023-02-19T16:57:15.835Z,6.25
2023-02-19T16:59:43.027Z,3.90
2023-02-19T17:02:19.856Z,8.57
2023-02-19T17:04:49.168Z,9.15
2023-02-19T17:07:18.627Z,7.03
2023-02-19T17:09:45.866Z,8.75
2023-02-19T17:12:15.068Z,9.50
2023-02-19T17:14:42.606Z,8.35
2023-02-19T17:17:09.680Z,5.43
2023-02-19T17:19:36.844Z,6.82
2023-02-19T17:22:04.458Z,7.45
2023-02-19T17:24:32.020Z,5.22
2023-02-19T17:26:59.178Z,4.85
2023-02-19T17:29:26.343Z,7.47
2023-02-19T17:31:53.488Z,6.55
2023-02-19T17:34:20.543Z,10.07
2023-02-19T17:36:48.751Z,6.43
2023-02-19T17:39:16.274Z,6.50
2023-02-19T17:41:43.994Z,6.00
2023-02-19T17:44:11.455Z,5.60
2023-02-19T17:46:39.815Z,6.25
2023-02-19T17:49:07.796Z,12.88
2023-02-19T17:51:35.831Z,12.45
2023-02-19T17:54:02.955Z,8.32
2023-02-19T17:56:30.283Z,4.15
2023-02-19T17:58:58.930Z,7.07
2023-02-19T18:01:26.217Z,8.23
2023-02-19T18:03:53.409Z,6.85
2023-02-19T18:06:21.208Z,7.40
2023-02-19T18:08:53.184Z,8.55
2023-02-19T18:11:22.541Z,12.35
2023-02-19T18:13:51.415Z,7.20
2023-02-19T18:16:18.982Z,4.80
2023-02-19T18:18:46.688Z,6.57
2023-02-19T18:21:14.614Z,7.70
2023-02-19T18:23:42.258Z,5.25
2023-02-19T18:26:11.551Z,8.38
2023-02-19T18:28:39.358Z,7.45
2023-02-19T18:31:06.937Z,4.70
2023-02-19T18:33:35.479Z,5.47
2023-02-19T18:36:02.871Z,9.80
2023-02-19T18:38:30.068Z,9.13
2023-02-19T18:40:58.772Z,7.03
2023-02-19T18:43:26.095Z,7.65
2023-02-19T18:45:53.293Z,7.50
2023-02-19T18:48:20.467Z,7.97
2023-02-19T18:50:47.758Z,5.95
2023-02-19T18:53:14.758Z,8.05
2023-02-19T18:55:41.983Z,5.28
2023-02-19T18:58:09.049Z,6.55
2023-02-19T19:00:36.345Z,9.73
2023-02-19T19:03:03.418Z,5.25
2023-02-19T19:05:30.634Z,10.65
2023-02-19T19:07:59.643Z,9.45
2023-02-19T19:10:29.322Z,7.28
2023-02-19T19:12:56.718Z,8.30
2023-02-19T19:15:24.180Z,10.73
2023-02-19T19:17:52.093Z,9.65
2023-02-19T19:20:23.543Z,9.68
2023-02-19T19:22:52.696Z,7.78
2023-02-19T19:25:21.783Z,8.52
2023-02-19T19:27:50.935Z,11.57
2023-02-19T19:30:20.527Z,12.77
2023-02-19T19:32:52.488Z,15.55
2023-02-19T19:35:21.761Z,9.13
2023-02-19T19:37:49.399Z,13.95
2023-02-19T19:40:18.156Z,12.45
2023-02-19T19:42:45.282Z,9.65
2023-02-19T19:45:15.233Z,7.57
2023-02-19T19:47:43.119Z,8.18
2023-02-19T19:50:12.342Z,13.50
2023-02-19T19:52:39.635Z,12.15
2023-02-19T19:55:07.607Z,12.13
2023-02-19T19:57:34.780Z,10.68
2023-02-19T20:00:02.256Z,7.72
2023-02-19T20:02:29.382Z,8.93
2023-02-19T20:04:56.513Z,9.90
2023-02-19T20:07:23.981Z,7.72
2023-02-19T20:09:51.447Z,8.63
2023-02-19T20:12:18.458Z,10.57
2023-02-19T20:14:46.976Z,10.55
2023-02-19T20:17:14.906Z,8.95
2023-02-19T20:19:42.384Z,7.57
2023-02-19T20:22:09.447Z,6.95
2023-02-19T20:24:36.863Z,10.32
2023-02-19T20:27:04.745Z,12.52
2023-02-19T20:29:33.750Z,8.75
2023-02-19T20:32:02.774Z,12.15
2023-02-19T20:34:30.608Z,13.68
2023-02-19T20:36:58.028Z,15.07
2023-02-19T20:39:29.402Z,11.15
2023-02-19T20:41:59.539Z,13.85
2023-02-19T20:44:30.618Z,11.10
2023-02-19T20:47:00.472Z,13.32
2023-02-19T20:49:31.677Z,7.13
2023-02-19T20:52:02.730Z,10.70
2023-02-19T20:54:34.151Z,6.85
2023-02-19T20:57:04.168Z,8.00
2023-02-19T20:59:35.615Z,7.80
2023-02-19T21:02:08.729Z,5.85
2023-02-19T21:04:38.393Z,11.02
2023-02-19T21:07:05.586Z,8.70
2023-02-19T21:09:32.896Z,5.55
2023-02-19T21:12:00.762Z,6.03
2023-02-19T21:14:28.757Z,9.15
2023-02-19T21:16:57.063Z,5.22
2023-02-19T21:19:25.085Z,6.15
2023-02-19T21:21:52.344Z,6.30
2023-02-19T21:24:19.428Z,8.23
2023-02-19T21:26:46.535Z,5.25
2023-02-19T21:29:31.429Z,5.05
2023-02-19T21:31:59.131Z,6.28
2023-02-19T21:34:30.330Z,7.47
2023-02-19T21:36:58.688Z,7.82
2023-02-19T21:39:28.884Z,4.78
2023-02-19T21:41:58.910Z,11.45
2023-02-19T21:44:26.731Z,6.57
2023-02-19T21:46:53.777Z,8.75
2023-02-19T21:49:20.952Z,9.55
2023-02-19T21:51:51.074Z,9.70
2023-02-19T21:54:27.280Z,7.03
2023-02-19T21:56:54.740Z,8.65
2023-02-19T21:59:22.774Z,6.90
2023-02-19T22:01:50.861Z,4.80
2023-02-19T22:04:20.332Z,8.80
2023-02-19T22:06:47.883Z,7.10
2023-02-19T22:09:15.649Z,5.60
2023-02-19T22:11:43.002Z,7.63
2023-02-19T22:14:10.082Z,6.03
2023-02-19T22:16:37.342Z,7.55
2023-02-19T22:19:04.769Z,6.32
2023-02-19T22:21:35.686Z,5.15
2023-02-19T22:24:03.707Z,7.53
2023-02-19T22:26:35.775Z,6.30
2023-02-19T22:29:07.410Z,4.97
2023-02-19T22:31:35.792Z,2.92
2023-02-19T22:34:03.467Z,5.28
2023-02-19T22:36:34.438Z,5.50
2023-02-19T22:39:02.042Z,6.22
2023-02-19T22:41:29.850Z,4.95
2023-02-19T22:43:58.415Z,6.78
2023-02-19T22:46:27.911Z,5.53
2023-02-19T22:48:55.176Z,5.75
2023-02-19T22:51:24.110Z,4.78
2023-02-19T22:53:54.226Z,4.78
2023-02-19T22:56:24.296Z,4.47
2023-02-19T22:58:52.168Z,6.13
2023-02-19T23:01:19.930Z,4.05
2023-02-19T23:03:51.823Z,7.40
2023-02-19T23:06:26.112Z,6.05
2023-02-19T23:08:55.165Z,5.03
2023-02-19T23:11:24.781Z,8.50
2023-02-19T23:13:51.829Z,6.55
2023-02-19T23:16:18.894Z,5.97
2023-02-19T23:18:46.149Z,3.65
2023-02-19T23:21:13.623Z,6.10
2023-02-19T23:23:45.132Z,6.38
2023-02-19T23:26:13.880Z,4.35
2023-02-19T23:28:41.951Z,6.35
2023-02-19T23:31:09.610Z,7.90
2023-02-19T23:33:36.995Z,4.72
2023-02-19T23:36:04.337Z,3.53
2023-02-19T23:38:31.406Z,6.35
2023-02-19T23:40:59.375Z,3.33
2023-02-19T23:43:26.577Z,4.97
2023-02-19T23:45:53.981Z,5.38
2023-02-19T23:48:21.100Z,3.60
2023-02-19T23:50:48.328Z,4.05
2023-02-19T23:53:15.432Z,6.95
2023-02-19T23:55:42.629Z,4.93
2023-02-19T23:58:09.711Z,4.00
